sensor_id;sensor_type;location;lat;lon;timestamp;P1;durP1;ratioP1;P2;durP2;ratioP2
1390;SDS011;690;51.454;7.194;2023-12-07T00:02:17;52.30;;;24.15;;
1390;SDS011;690;51.454;7.194;2023-12-07T00:04:45;56.17;;;25.05;;
1390;SDS011;690;51.454;7.194;2023-12-07T00:07:12;51.42;;;25.02;;
1390;SDS011;690;51.454;7.194;2023-12-07T00:09:38;45.90;;;25.63;;
1390;SDS011;690;51.454;7.194;2023-12-07T00:12:06;55.65;;;27.13;;
1390;SDS011;690;51.454;7.194;2023-12-07T00:14:33;60.47;;;28.67;;
1390;SDS011;690;51.454;7.194;2023-12-07T00:17:00;57.53;;;27.73;;
1390;SDS011;690;51.454;7.194;2023-12-07T00:19:26;53.40;;;28.63;;
1390;SDS011;690;51.454;7.194;2023-12-07T00:21:55;54.75;;;27.23;;
1390;SDS011;690;51.454;7.194;2023-12-07T00:24:22;67.75;;;29.48;;
1390;SDS011;690;51.454;7.194;2023-12-07T00:26:49;63.50;;;30.15;;
1390;SDS011;690;51.454;7.194;2023-12-07T00:29:16;60.33;;;28.50;;
1390;SDS011;690;51.454;7.194;2023-12-07T00:31:43;62.47;;;28.80;;
1390;SDS011;690;51.454;7.194;2023-12-07T00:34:10;55.97;;;26.60;;
1390;SDS011;690;51.454;7.194;2023-12-07T00:36:37;57.17;;;26.48;;
1390;SDS011;690;51.454;7.194;2023-12-07T00:39:07;62.47;;;28.45;;
1390;SDS011;690;51.454;7.194;2023-12-07T00:41:34;53.15;;;27.10;;
1390;SDS011;690;51.454;7.194;2023-12-07T00:44:01;55.45;;;28.30;;
1390;SDS011;690;51.454;7.194;2023-12-07T00:46:28;53.20;;;25.42;;
1390;SDS011;690;51.454;7.194;2023-12-07T00:48:55;60.95;;;29.83;;
1390;SDS011;690;51.454;7.194;2023-12-07T00:51:22;62.78;;;28.40;;
1390;SDS011;690;51.454;7.194;2023-12-07T00:53:49;63.28;;;29.20;;
1390;SDS011;690;51.454;7.194;2023-12-07T00:56:17;70.00;;;27.98;;
1390;SDS011;690;51.454;7.194;2023-12-07T00:58:44;61.40;;;27.13;;
1390;SDS011;690;51.454;7.194;2023-12-07T01:01:11;65.13;;;28.33;;
1390;SDS011;690;51.454;7.194;2023-12-07T01:03:37;58.17;;;27.15;;
1390;SDS011;690;51.454;7.194;2023-12-07T01:06:05;63.70;;;27.38;;
1390;SDS011;690;51.454;7.194;2023-12-07T01:08:32;58.20;;;27.70;;
1390;SDS011;690;51.454;7.194;2023-12-07T01:10:59;70.72;;;27.92;;
1390;SDS011;690;51.454;7.194;2023-12-07T01:13:28;62.25;;;27.27;;
1390;SDS011;690;51.454;7.194;2023-12-07T01:15:58;60.03;;;27.77;;
1390;SDS011;690;51.454;7.194;2023-12-07T01:18:24;58.60;;;28.65;;
1390;SDS011;690;51.454;7.194;2023-12-07T01:20:52;64.07;;;27.95;;
1390;SDS011;690;51.454;7.194;2023-12-07T01:23:18;61.38;;;28.80;;
1390;SDS011;690;51.454;7.194;2023-12-07T01:25:45;60.20;;;29.10;;
1390;SDS011;690;51.454;7.194;2023-12-07T01:28:12;56.45;;;26.15;;
1390;SDS011;690;51.454;7.194;2023-12-07T01:30:41;60.58;;;27.60;;
1390;SDS011;690;51.454;7.194;2023-12-07T01:33:08;60.10;;;28.33;;
1390;SDS011;690;51.454;7.194;2023-12-07T01:35:34;53.65;;;27.45;;
1390;SDS011;690;51.454;7.194;2023-12-07T01:38:01;61.55;;;27.20;;
1390;SDS011;690;51.454;7.194;2023-12-07T01:40:29;56.45;;;29.48;;
1390;SDS011;690;51.454;7.194;2023-12-07T01:42:56;59.75;;;28.73;;
1390;SDS011;690;51.454;7.194;2023-12-07T01:45:23;58.20;;;28.77;;
1390;SDS011;690;51.454;7.194;2023-12-07T01:47:51;62.83;;;28.38;;
1390;SDS011;690;51.454;7.194;2023-12-07T01:50:21;65.20;;;32.03;;
1390;SDS011;690;51.454;7.194;2023-12-07T01:52:50;60.90;;;28.13;;
1390;SDS011;690;51.454;7.194;2023-12-07T01:55:20;62.70;;;29.92;;
1390;SDS011;690;51.454;7.194;2023-12-07T01:57:49;62.65;;;29.70;;
1390;SDS011;690;51.454;7.194;2023-12-07T02:00:16;57.63;;;27.95;;
1390;SDS011;690;51.454;7.194;2023-12-07T02:02:43;53.15;;;27.58;;
1390;SDS011;690;51.454;7.194;2023-12-07T02:05:12;62.90;;;28.08;;
1390;SDS011;690;51.454;7.194;2023-12-07T02:07:40;69.00;;;29.58;;
1390;SDS011;690;51.454;7.194;2023-12-07T02:10:08;58.38;;;26.10;;
1390;SDS011;690;51.454;7.194;2023-12-07T02:12:35;60.45;;;28.52;;
1390;SDS011;690;51.454;7.194;2023-12-07T02:15:02;60.80;;;28.45;;
1390;SDS011;690;51.454;7.194;2023-12-07T02:17:32;51.97;;;27.50;;
1390;SDS011;690;51.454;7.194;2023-12-07T02:20:04;58.88;;;27.33;;
1390;SDS011;690;51.454;7.194;2023-12-07T02:22:37;51.28;;;27.08;;
1390;SDS011;690;51.454;7.194;2023-12-07T02:25:07;54.53;;;27.80;;
1390;SDS011;690;51.454;7.194;2023-12-07T02:27:37;59.10;;;27.65;;
1390;SDS011;690;51.454;7.194;2023-12-07T02:30:05;62.88;;;27.67;;
1390;SDS011;690;51.454;7.194;2023-12-07T02:32:34;57.13;;;28.08;;
1390;SDS011;690;51.454;7.194;2023-12-07T02:35:01;55.45;;;26.88;;
1390;SDS011;690;51.454;7.194;2023-12-07T02:37:29;53.63;;;25.25;;
1390;SDS011;690;51.454;7.194;2023-12-07T02:40:00;57.05;;;27.27;;
1390;SDS011;690;51.454;7.194;2023-12-07T02:42:29;57.00;;;25.95;;
1390;SDS011;690;51.454;7.194;2023-12-07T02:45:00;50.35;;;25.08;;
1390;SDS011;690;51.454;7.194;2023-12-07T02:47:28;62.92;;;27.42;;
1390;SDS011;690;51.454;7.194;2023-12-07T02:49:55;55.33;;;25.85;;
1390;SDS011;690;51.454;7.194;2023-12-07T02:52:22;55.22;;;26.35;;
1390;SDS011;690;51.454;7.194;2023-12-07T02:54:49;60.08;;;27.00;;
1390;SDS011;690;51.454;7.194;2023-12-07T02:57:16;55.10;;;26.13;;
1390;SDS011;690;51.454;7.194;2023-12-07T02:59:43;56.45;;;27.45;;
1390;SDS011;690;51.454;7.194;2023-12-07T03:02:11;55.40;;;26.10;;
1390;SDS011;690;51.454;7.194;2023-12-07T03:04:39;51.88;;;25.10;;
1390;SDS011;690;51.454;7.194;2023-12-07T03:07:06;54.28;;;23.65;;
1390;SDS011;690;51.454;7.194;2023-12-07T03:09:33;55.10;;;24.90;;
1390;SDS011;690;51.454;7.194;2023-12-07T03:11:59;53.97;;;24.58;;
1390;SDS011;690;51.454;7.194;2023-12-07T03:14:26;57.35;;;24.35;;
1390;SDS011;690;51.454;7.194;2023-12-07T03:16:53;55.63;;;25.45;;
1390;SDS011;690;51.454;7.194;2023-12-07T03:19:31;50.97;;;24.05;;
1390;SDS011;690;51.454;7.194;2023-12-07T03:21:58;46.95;;;23.02;;
1390;SDS011;690;51.454;7.194;2023-12-07T03:24:25;54.15;;;23.63;;
1390;SDS011;690;51.454;7.194;2023-12-07T03:26:52;49.60;;;23.60;;
1390;SDS011;690;51.454;7.194;2023-12-07T03:29:19;58.05;;;24.30;;
1390;SDS011;690;51.454;7.194;2023-12-07T03:31:46;50.83;;;23.67;;
1390;SDS011;690;51.454;7.194;2023-12-07T03:34:13;52.85;;;25.40;;
1390;SDS011;690;51.454;7.194;2023-12-07T03:36:42;47.40;;;23.35;;
1390;SDS011;690;51.454;7.194;2023-12-07T03:39:11;46.67;;;22.38;;
1390;SDS011;690;51.454;7.194;2023-12-07T03:41:39;48.58;;;23.50;;
1390;SDS011;690;51.454;7.194;2023-12-07T03:44:06;49.33;;;22.35;;
1390;SDS011;690;51.454;7.194;2023-12-07T03:46:33;47.75;;;21.75;;
1390;SDS011;690;51.454;7.194;2023-12-07T03:49:00;51.05;;;23.80;;
1390;SDS011;690;51.454;7.194;2023-12-07T03:51:27;52.03;;;21.83;;
1390;SDS011;690;51.454;7.194;2023-12-07T03:53:55;49.13;;;23.98;;
1390;SDS011;690;51.454;7.194;2023-12-07T03:56:23;72.00;;;21.92;;
1390;SDS011;690;51.454;7.194;2023-12-07T03:58:50;49.50;;;21.20;;
1390;SDS011;690;51.454;7.194;2023-12-07T04:01:17;42.80;;;20.52;;
1390;SDS011;690;51.454;7.194;2023-12-07T04:03:47;50.47;;;23.00;;
1390;SDS011;690;51.454;7.194;2023-12-07T04:06:14;44.85;;;21.58;;
1390;SDS011;690;51.454;7.194;2023-12-07T04:08:41;45.08;;;21.20;;
1390;SDS011;690;51.454;7.194;2023-12-07T04:11:09;43.20;;;20.88;;
1390;SDS011;690;51.454;7.194;2023-12-07T04:13:37;49.72;;;20.10;;
1390;SDS011;690;51.454;7.194;2023-12-07T04:16:04;51.58;;;21.48;;
1390;SDS011;690;51.454;7.194;2023-12-07T04:18:32;49.22;;;21.80;;
1390;SDS011;690;51.454;7.194;2023-12-07T04:20:59;62.45;;;21.90;;
1390;SDS011;690;51.454;7.194;2023-12-07T04:23:27;50.45;;;22.17;;
1390;SDS011;690;51.454;7.194;2023-12-07T04:25:57;46.53;;;21.92;;
1390;SDS011;690;51.454;7.194;2023-12-07T04:28:25;59.03;;;22.17;;
1390;SDS011;690;51.454;7.194;2023-12-07T04:30:52;47.35;;;21.05;;
1390;SDS011;690;51.454;7.194;2023-12-07T04:33:19;49.28;;;22.20;;
1390;SDS011;690;51.454;7.194;2023-12-07T04:35:47;41.17;;;20.80;;
1390;SDS011;690;51.454;7.194;2023-12-07T04:38:14;40.67;;;19.35;;
1390;SDS011;690;51.454;7.194;2023-12-07T04:40:41;43.13;;;20.95;;
1390;SDS011;690;51.454;7.194;2023-12-07T04:43:08;45.05;;;21.73;;
1390;SDS011;690;51.454;7.194;2023-12-07T04:45:36;47.60;;;22.55;;
1390;SDS011;690;51.454;7.194;2023-12-07T04:48:03;48.05;;;21.05;;
1390;SDS011;690;51.454;7.194;2023-12-07T04:50:31;46.15;;;20.13;;
1390;SDS011;690;51.454;7.194;2023-12-07T04:52:58;64.25;;;24.80;;
1390;SDS011;690;51.454;7.194;2023-12-07T04:55:24;47.92;;;22.20;;
1390;SDS011;690;51.454;7.194;2023-12-07T04:57:51;40.45;;;19.67;;
1390;SDS011;690;51.454;7.194;2023-12-07T05:00:18;52.25;;;20.95;;
1390;SDS011;690;51.454;7.194;2023-12-07T05:02:47;45.00;;;20.77;;
1390;SDS011;690;51.454;7.194;2023-12-07T05:05:14;51.95;;;21.73;;
1390;SDS011;690;51.454;7.194;2023-12-07T05:07:46;53.55;;;21.50;;
1390;SDS011;690;51.454;7.194;2023-12-07T05:10:13;49.22;;;22.65;;
1390;SDS011;690;51.454;7.194;2023-12-07T05:12:39;52.88;;;21.58;;
1390;SDS011;690;51.454;7.194;2023-12-07T05:15:07;47.20;;;20.40;;
1390;SDS011;690;51.454;7.194;2023-12-07T05:17:34;43.08;;;19.30;;
1390;SDS011;690;51.454;7.194;2023-12-07T05:20:03;43.85;;;20.98;;
1390;SDS011;690;51.454;7.194;2023-12-07T05:22:32;38.08;;;19.15;;
1390;SDS011;690;51.454;7.194;2023-12-07T05:24:59;40.17;;;20.63;;
1390;SDS011;690;51.454;7.194;2023-12-07T05:27:25;41.45;;;20.73;;
1390;SDS011;690;51.454;7.194;2023-12-07T05:29:52;44.80;;;20.25;;
1390;SDS011;690;51.454;7.194;2023-12-07T05:32:19;44.80;;;20.92;;
1390;SDS011;690;51.454;7.194;2023-12-07T05:34:46;32.60;;;18.98;;
1390;SDS011;690;51.454;7.194;2023-12-07T05:37:15;39.63;;;17.73;;
1390;SDS011;690;51.454;7.194;2023-12-07T05:39:41;43.80;;;18.77;;
1390;SDS011;690;51.454;7.194;2023-12-07T05:42:08;40.45;;;19.30;;
1390;SDS011;690;51.454;7.194;2023-12-07T05:44:36;49.45;;;19.73;;
1390;SDS011;690;51.454;7.194;2023-12-07T05:47:03;45.67;;;21.08;;
1390;SDS011;690;51.454;7.194;2023-12-07T05:49:30;42.08;;;19.95;;
1390;SDS011;690;51.454;7.194;2023-12-07T05:51:57;35.90;;;16.48;;
1390;SDS011;690;51.454;7.194;2023-12-07T05:54:25;34.55;;;15.75;;
1390;SDS011;690;51.454;7.194;2023-12-07T05:56:52;38.17;;;16.73;;
1390;SDS011;690;51.454;7.194;2023-12-07T05:59:19;34.75;;;16.85;;
1390;SDS011;690;51.454;7.194;2023-12-07T06:01:46;30.05;;;18.30;;
1390;SDS011;690;51.454;7.194;2023-12-07T06:04:13;34.90;;;17.75;;
1390;SDS011;690;51.454;7.194;2023-12-07T06:06:41;35.58;;;17.25;;
1390;SDS011;690;51.454;7.194;2023-12-07T06:09:08;39.35;;;18.77;;
1390;SDS011;690;51.454;7.194;2023-12-07T06:11:37;37.42;;;18.98;;
1390;SDS011;690;51.454;7.194;2023-12-07T06:14:04;32.42;;;16.75;;
1390;SDS011;690;51.454;7.194;2023-12-07T06:16:31;38.53;;;20.30;;
1390;SDS011;690;51.454;7.194;2023-12-07T06:18:58;36.57;;;19.73;;
1390;SDS011;690;51.454;7.194;2023-12-07T06:21:25;40.57;;;18.70;;
1390;SDS011;690;51.454;7.194;2023-12-07T06:23:54;36.03;;;19.60;;
1390;SDS011;690;51.454;7.194;2023-12-07T06:26:22;37.10;;;19.08;;
1390;SDS011;690;51.454;7.194;2023-12-07T06:28:50;32.80;;;17.60;;
1390;SDS011;690;51.454;7.194;2023-12-07T06:31:19;30.05;;;17.55;;
1390;SDS011;690;51.454;7.194;2023-12-07T06:33:46;30.55;;;16.98;;
1390;SDS011;690;51.454;7.194;2023-12-07T06:36:17;31.10;;;16.23;;
1390;SDS011;690;51.454;7.194;2023-12-07T06:38:45;29.58;;;16.38;;
1390;SDS011;690;51.454;7.194;2023-12-07T06:41:13;37.38;;;19.25;;
1390;SDS011;690;51.454;7.194;2023-12-07T06:43:40;38.47;;;19.40;;
1390;SDS011;690;51.454;7.194;2023-12-07T06:46:10;33.08;;;16.75;;
1390;SDS011;690;51.454;7.194;2023-12-07T06:48:37;32.63;;;17.52;;
1390;SDS011;690;51.454;7.194;2023-12-07T06:51:04;33.22;;;17.17;;
1390;SDS011;690;51.454;7.194;2023-12-07T06:53:31;32.15;;;17.85;;
1390;SDS011;690;51.454;7.194;2023-12-07T06:55:58;32.08;;;17.05;;
1390;SDS011;690;51.454;7.194;2023-12-07T06:58:25;29.50;;;17.20;;
1390;SDS011;690;51.454;7.194;2023-12-07T07:00:52;38.45;;;17.85;;
1390;SDS011;690;51.454;7.194;2023-12-07T07:03:20;27.52;;;15.52;;
1390;SDS011;690;51.454;7.194;2023-12-07T07:05:47;42.13;;;19.30;;
1390;SDS011;690;51.454;7.194;2023-12-07T07:08:14;37.22;;;18.83;;
1390;SDS011;690;51.454;7.194;2023-12-07T07:10:41;40.42;;;18.58;;
1390;SDS011;690;51.454;7.194;2023-12-07T07:13:09;38.78;;;18.05;;
1390;SDS011;690;51.454;7.194;2023-12-07T07:15:36;32.17;;;18.20;;
1390;SDS011;690;51.454;7.194;2023-12-07T07:18:03;30.27;;;16.67;;
1390;SDS011;690;51.454;7.194;2023-12-07T07:20:32;31.48;;;16.90;;
1390;SDS011;690;51.454;7.194;2023-12-07T07:22:59;40.25;;;19.33;;
1390;SDS011;690;51.454;7.194;2023-12-07T07:25:26;32.53;;;15.57;;
1390;SDS011;690;51.454;7.194;2023-12-07T07:27:53;36.28;;;16.73;;
1390;SDS011;690;51.454;7.194;2023-12-07T07:30:20;33.60;;;17.02;;
1390;SDS011;690;51.454;7.194;2023-12-07T07:32:53;33.58;;;17.02;;
1390;SDS011;690;51.454;7.194;2023-12-07T07:35:20;38.35;;;17.85;;
1390;SDS011;690;51.454;7.194;2023-12-07T07:37:48;34.33;;;17.67;;
1390;SDS011;690;51.454;7.194;2023-12-07T07:40:15;31.13;;;17.20;;
1390;SDS011;690;51.454;7.194;2023-12-07T07:42:42;38.55;;;16.80;;
1390;SDS011;690;51.454;7.194;2023-12-07T07:45:09;37.45;;;17.20;;
1390;SDS011;690;51.454;7.194;2023-12-07T07:47:36;44.53;;;18.98;;
1390;SDS011;690;51.454;7.194;2023-12-07T07:50:03;41.35;;;18.70;;
1390;SDS011;690;51.454;7.194;2023-12-07T07:52:32;45.20;;;18.23;;
1390;SDS011;690;51.454;7.194;2023-12-07T07:55:01;37.67;;;18.90;;
1390;SDS011;690;51.454;7.194;2023-12-07T07:57:36;40.33;;;18.40;;
1390;SDS011;690;51.454;7.194;2023-12-07T08:00:04;37.10;;;17.48;;
1390;SDS011;690;51.454;7.194;2023-12-07T08:02:33;34.97;;;17.33;;
1390;SDS011;690;51.454;7.194;2023-12-07T08:05:00;43.75;;;19.48;;
1390;SDS011;690;51.454;7.194;2023-12-07T08:07:27;41.10;;;19.25;;
1390;SDS011;690;51.454;7.194;2023-12-07T08:09:54;35.25;;;16.13;;
1390;SDS011;690;51.454;7.194;2023-12-07T08:12:22;39.22;;;19.25;;
1390;SDS011;690;51.454;7.194;2023-12-07T08:14:52;38.25;;;18.45;;
1390;SDS011;690;51.454;7.194;2023-12-07T08:17:18;34.03;;;17.60;;
1390;SDS011;690;51.454;7.194;2023-12-07T08:19:46;41.03;;;19.10;;
1390;SDS011;690;51.454;7.194;2023-12-07T08:22:13;37.95;;;20.55;;
1390;SDS011;690;51.454;7.194;2023-12-07T08:24:42;39.05;;;18.85;;
1390;SDS011;690;51.454;7.194;2023-12-07T08:27:09;37.47;;;18.83;;
1390;SDS011;690;51.454;7.194;2023-12-07T08:29:38;40.63;;;20.65;;
1390;SDS011;690;51.454;7.194;2023-12-07T08:32:05;37.25;;;17.55;;
1390;SDS011;690;51.454;7.194;2023-12-07T08:34:32;38.58;;;18.83;;
1390;SDS011;690;51.454;7.194;2023-12-07T08:36:59;39.63;;;19.02;;
1390;SDS011;690;51.454;7.194;2023-12-07T08:39:25;40.20;;;19.65;;
1390;SDS011;690;51.454;7.194;2023-12-07T08:41:52;39.30;;;18.50;;
1390;SDS011;690;51.454;7.194;2023-12-07T08:44:19;38.95;;;19.55;;
1390;SDS011;690;51.454;7.194;2023-12-07T08:46:48;39.55;;;20.30;;
1390;SDS011;690;51.454;7.194;2023-12-07T08:49:14;42.83;;;20.25;;
1390;SDS011;690;51.454;7.194;2023-12-07T08:51:41;38.40;;;19.65;;
1390;SDS011;690;51.454;7.194;2023-12-07T08:54:08;45.80;;;21.80;;
1390;SDS011;690;51.454;7.194;2023-12-07T08:56:35;37.63;;;19.70;;
1390;SDS011;690;51.454;7.194;2023-12-07T08:59:02;43.97;;;22.85;;
1390;SDS011;690;51.454;7.194;2023-12-07T09:01:29;39.83;;;20.20;;
1390;SDS011;690;51.454;7.194;2023-12-07T09:03:59;45.38;;;21.02;;
1390;SDS011;690;51.454;7.194;2023-12-07T09:06:26;39.13;;;20.63;;
1390;SDS011;690;51.454;7.194;2023-12-07T09:08:53;51.05;;;21.25;;
1390;SDS011;690;51.454;7.194;2023-12-07T09:11:20;49.25;;;21.80;;
1390;SDS011;690;51.454;7.194;2023-12-07T09:13:47;46.92;;;22.13;;
1390;SDS011;690;51.454;7.194;2023-12-07T09:16:14;40.75;;;21.30;;
1390;SDS011;690;51.454;7.194;2023-12-07T09:18:41;41.30;;;21.58;;
1390;SDS011;690;51.454;7.194;2023-12-07T09:21:11;36.72;;;19.02;;
1390;SDS011;690;51.454;7.194;2023-12-07T09:23:38;41.42;;;19.60;;
1390;SDS011;690;51.454;7.194;2023-12-07T09:26:05;36.83;;;19.45;;
1390;SDS011;690;51.454;7.194;2023-12-07T09:28:33;40.22;;;19.25;;
1390;SDS011;690;51.454;7.194;2023-12-07T09:31:00;42.75;;;20.77;;
1390;SDS011;690;51.454;7.194;2023-12-07T09:33:34;34.95;;;18.88;;
1390;SDS011;690;51.454;7.194;2023-12-07T09:36:01;37.63;;;20.63;;
1390;SDS011;690;51.454;7.194;2023-12-07T09:38:34;39.25;;;21.35;;
1390;SDS011;690;51.454;7.194;2023-12-07T09:41:02;39.63;;;19.17;;
1390;SDS011;690;51.454;7.194;2023-12-07T09:43:29;32.22;;;18.20;;
1390;SDS011;690;51.454;7.194;2023-12-07T09:45:56;33.45;;;18.77;;
1390;SDS011;690;51.454;7.194;2023-12-07T09:48:24;37.28;;;18.27;;
1390;SDS011;690;51.454;7.194;2023-12-07T09:50:52;35.20;;;18.88;;
1390;SDS011;690;51.454;7.194;2023-12-07T09:53:21;34.92;;;18.77;;
1390;SDS011;690;51.454;7.194;2023-12-07T09:55:49;32.60;;;18.60;;
1390;SDS011;690;51.454;7.194;2023-12-07T09:58:16;31.27;;;17.40;;
1390;SDS011;690;51.454;7.194;2023-12-07T10:00:44;30.73;;;16.73;;
1390;SDS011;690;51.454;7.194;2023-12-07T10:03:20;29.17;;;16.63;;
1390;SDS011;690;51.454;7.194;2023-12-07T10:05:54;29.98;;;16.48;;
1390;SDS011;690;51.454;7.194;2023-12-07T10:08:25;27.65;;;16.17;;
1390;SDS011;690;51.454;7.194;2023-12-07T10:11:02;25.30;;;15.20;;
1390;SDS011;690;51.454;7.194;2023-12-07T10:13:31;24.40;;;14.73;;
1390;SDS011;690;51.454;7.194;2023-12-07T10:16:06;23.50;;;13.20;;
1390;SDS011;690;51.454;7.194;2023-12-07T10:18:34;22.77;;;13.17;;
1390;SDS011;690;51.454;7.194;2023-12-07T10:21:02;22.70;;;13.00;;
1390;SDS011;690;51.454;7.194;2023-12-07T10:23:29;17.97;;;12.63;;
1390;SDS011;690;51.454;7.194;2023-12-07T10:25:58;20.03;;;12.20;;
1390;SDS011;690;51.454;7.194;2023-12-07T10:28:27;21.23;;;11.73;;
1390;SDS011;690;51.454;7.194;2023-12-07T10:30:54;25.37;;;12.13;;
1390;SDS011;690;51.454;7.194;2023-12-07T10:33:22;20.43;;;12.50;;
1390;SDS011;690;51.454;7.194;2023-12-07T10:35:50;26.17;;;12.33;;
1390;SDS011;690;51.454;7.194;2023-12-07T10:38:24;22.83;;;15.80;;
1390;SDS011;690;51.454;7.194;2023-12-07T10:40:55;14.83;;;11.07;;
1390;SDS011;690;51.454;7.194;2023-12-07T10:43:32;17.83;;;10.93;;
1390;SDS011;690;51.454;7.194;2023-12-07T10:46:03;19.80;;;11.80;;
1390;SDS011;690;51.454;7.194;2023-12-07T10:48:31;23.97;;;13.37;;
1390;SDS011;690;51.454;7.194;2023-12-07T10:50:59;20.80;;;11.83;;
1390;SDS011;690;51.454;7.194;2023-12-07T10:53:29;20.10;;;10.23;;
1390;SDS011;690;51.454;7.194;2023-12-07T10:56:05;15.50;;;9.77;;
1390;SDS011;690;51.454;7.194;2023-12-07T10:58:38;14.60;;;10.40;;
1390;SDS011;690;51.454;7.194;2023-12-07T11:01:06;15.50;;;9.33;;
1390;SDS011;690;51.454;7.194;2023-12-07T11:03:34;16.77;;;10.20;;
1390;SDS011;690;51.454;7.194;2023-12-07T11:06:02;12.67;;;8.57;;
1390;SDS011;690;51.454;7.194;2023-12-07T11:08:31;14.60;;;9.30;;
1390;SDS011;690;51.454;7.194;2023-12-07T11:11:04;15.33;;;8.90;;
1390;SDS011;690;51.454;7.194;2023-12-07T11:13:35;12.20;;;7.50;;
1390;SDS011;690;51.454;7.194;2023-12-07T11:16:04;13.13;;;8.20;;
1390;SDS011;690;51.454;7.194;2023-12-07T11:18:31;13.10;;;9.97;;
1390;SDS011;690;51.454;7.194;2023-12-07T11:20:58;14.80;;;8.27;;
1390;SDS011;690;51.454;7.194;2023-12-07T11:23:26;8.93;;;7.53;;
1390;SDS011;690;51.454;7.194;2023-12-07T11:25:55;12.57;;;8.73;;
1390;SDS011;690;51.454;7.194;2023-12-07T11:28:33;12.83;;;8.13;;
1390;SDS011;690;51.454;7.194;2023-12-07T11:31:02;10.43;;;7.97;;
1390;SDS011;690;51.454;7.194;2023-12-07T11:33:29;12.20;;;8.00;;
1390;SDS011;690;51.454;7.194;2023-12-07T11:36:03;11.20;;;8.10;;
1390;SDS011;690;51.454;7.194;2023-12-07T11:38:31;12.80;;;7.50;;
1390;SDS011;690;51.454;7.194;2023-12-07T11:40:58;13.27;;;8.93;;
1390;SDS011;690;51.454;7.194;2023-12-07T11:43:41;12.27;;;8.87;;
1390;SDS011;690;51.454;7.194;2023-12-07T11:46:13;11.73;;;8.27;;
1390;SDS011;690;51.454;7.194;2023-12-07T11:48:46;10.00;;;7.27;;
1390;SDS011;690;51.454;7.194;2023-12-07T11:51:15;10.63;;;7.70;;
1390;SDS011;690;51.454;7.194;2023-12-07T11:53:43;16.40;;;8.47;;
1390;SDS011;690;51.454;7.194;2023-12-07T11:56:10;15.20;;;8.90;;
1390;SDS011;690;51.454;7.194;2023-12-07T11:58:38;11.53;;;8.10;;
1390;SDS011;690;51.454;7.194;2023-12-07T12:01:09;14.20;;;8.30;;
1390;SDS011;690;51.454;7.194;2023-12-07T12:03:37;16.80;;;7.70;;
1390;SDS011;690;51.454;7.194;2023-12-07T12:06:05;12.47;;;8.30;;
1390;SDS011;690;51.454;7.194;2023-12-07T12:08:35;14.17;;;8.70;;
1390;SDS011;690;51.454;7.194;2023-12-07T12:11:02;13.50;;;8.17;;
1390;SDS011;690;51.454;7.194;2023-12-07T12:13:32;9.53;;;6.97;;
1390;SDS011;690;51.454;7.194;2023-12-07T12:16:00;16.63;;;7.77;;
1390;SDS011;690;51.454;7.194;2023-12-07T12:18:27;11.57;;;7.60;;
1390;SDS011;690;51.454;7.194;2023-12-07T12:20:56;10.10;;;7.10;;
1390;SDS011;690;51.454;7.194;2023-12-07T12:23:24;8.07;;;6.70;;
1390;SDS011;690;51.454;7.194;2023-12-07T12:25:52;9.77;;;6.70;;
1390;SDS011;690;51.454;7.194;2023-12-07T12:28:20;9.97;;;7.63;;
1390;SDS011;690;51.454;7.194;2023-12-07T12:30:48;8.37;;;6.30;;
1390;SDS011;690;51.454;7.194;2023-12-07T12:33:16;11.60;;;7.10;;
1390;SDS011;690;51.454;7.194;2023-12-07T12:35:46;12.47;;;6.70;;
1390;SDS011;690;51.454;7.194;2023-12-07T12:38:14;10.47;;;7.43;;
1390;SDS011;690;51.454;7.194;2023-12-07T12:40:41;12.67;;;7.67;;
1390;SDS011;690;51.454;7.194;2023-12-07T12:43:08;13.47;;;8.43;;
1390;SDS011;690;51.454;7.194;2023-12-07T12:45:35;10.60;;;6.70;;
1390;SDS011;690;51.454;7.194;2023-12-07T12:48:02;10.97;;;6.20;;
1390;SDS011;690;51.454;7.194;2023-12-07T12:50:35;9.50;;;7.33;;
1390;SDS011;690;51.454;7.194;2023-12-07T12:53:04;11.53;;;7.13;;
1390;SDS011;690;51.454;7.194;2023-12-07T12:55:34;11.43;;;7.60;;
1390;SDS011;690;51.454;7.194;2023-12-07T12:58:02;11.70;;;7.67;;
1390;SDS011;690;51.454;7.194;2023-12-07T13:00:30;10.10;;;8.00;;
1390;SDS011;690;51.454;7.194;2023-12-07T13:02:58;13.63;;;7.80;;
1390;SDS011;690;51.454;7.194;2023-12-07T13:05:25;10.30;;;7.70;;
1390;SDS011;690;51.454;7.194;2023-12-07T13:07:52;10.57;;;7.00;;
1390;SDS011;690;51.454;7.194;2023-12-07T13:10:18;11.20;;;7.87;;
1390;SDS011;690;51.454;7.194;2023-12-07T13:12:47;11.97;;;7.70;;
1390;SDS011;690;51.454;7.194;2023-12-07T13:15:14;10.27;;;7.27;;
1390;SDS011;690;51.454;7.194;2023-12-07T13:17:42;12.50;;;8.03;;
1390;SDS011;690;51.454;7.194;2023-12-07T13:20:10;11.33;;;7.60;;
1390;SDS011;690;51.454;7.194;2023-12-07T13:22:38;11.43;;;7.40;;
1390;SDS011;690;51.454;7.194;2023-12-07T13:25:06;9.67;;;6.20;;
1390;SDS011;690;51.454;7.194;2023-12-07T13:27:34;12.73;;;7.87;;
1390;SDS011;690;51.454;7.194;2023-12-07T13:30:03;9.57;;;7.30;;
1390;SDS011;690;51.454;7.194;2023-12-07T13:32:31;9.43;;;6.47;;
1390;SDS011;690;51.454;7.194;2023-12-07T13:34:58;10.63;;;7.43;;
1390;SDS011;690;51.454;7.194;2023-12-07T13:37:26;10.23;;;7.17;;
1390;SDS011;690;51.454;7.194;2023-12-07T13:39:53;10.43;;;6.47;;
1390;SDS011;690;51.454;7.194;2023-12-07T13:42:23;11.63;;;7.63;;
1390;SDS011;690;51.454;7.194;2023-12-07T13:44:52;9.80;;;7.47;;
1390;SDS011;690;51.454;7.194;2023-12-07T13:47:23;9.13;;;6.90;;
1390;SDS011;690;51.454;7.194;2023-12-07T13:49:56;10.67;;;7.00;;
1390;SDS011;690;51.454;7.194;2023-12-07T13:52:24;11.43;;;8.43;;
1390;SDS011;690;51.454;7.194;2023-12-07T13:54:52;15.93;;;7.13;;
1390;SDS011;690;51.454;7.194;2023-12-07T13:57:19;11.50;;;6.87;;
1390;SDS011;690;51.454;7.194;2023-12-07T13:59:46;10.90;;;7.37;;
1390;SDS011;690;51.454;7.194;2023-12-07T14:02:15;11.23;;;7.67;;
1390;SDS011;690;51.454;7.194;2023-12-07T14:04:43;15.53;;;7.97;;
1390;SDS011;690;51.454;7.194;2023-12-07T14:07:11;14.20;;;7.70;;
1390;SDS011;690;51.454;7.194;2023-12-07T14:09:39;10.17;;;7.60;;
1390;SDS011;690;51.454;7.194;2023-12-07T14:12:08;10.00;;;7.97;;
1390;SDS011;690;51.454;7.194;2023-12-07T14:14:38;11.60;;;7.67;;
1390;SDS011;690;51.454;7.194;2023-12-07T14:17:05;9.70;;;7.03;;
1390;SDS011;690;51.454;7.194;2023-12-07T14:19:32;9.73;;;6.40;;
1390;SDS011;690;51.454;7.194;2023-12-07T14:22:01;11.30;;;7.50;;
1390;SDS011;690;51.454;7.194;2023-12-07T14:24:29;12.00;;;7.10;;
1390;SDS011;690;51.454;7.194;2023-12-07T14:26:56;13.10;;;7.53;;
1390;SDS011;690;51.454;7.194;2023-12-07T14:29:24;9.67;;;7.30;;
1390;SDS011;690;51.454;7.194;2023-12-07T14:31:51;13.17;;;9.53;;
1390;SDS011;690;51.454;7.194;2023-12-07T14:34:17;10.43;;;6.67;;
1390;SDS011;690;51.454;7.194;2023-12-07T14:36:45;10.27;;;6.77;;
1390;SDS011;690;51.454;7.194;2023-12-07T14:39:13;9.30;;;7.40;;
1390;SDS011;690;51.454;7.194;2023-12-07T14:41:42;13.20;;;7.60;;
1390;SDS011;690;51.454;7.194;2023-12-07T14:44:12;9.87;;;7.50;;
1390;SDS011;690;51.454;7.194;2023-12-07T14:46:40;12.37;;;7.17;;
1390;SDS011;690;51.454;7.194;2023-12-07T14:49:08;12.20;;;7.50;;
1390;SDS011;690;51.454;7.194;2023-12-07T14:51:35;9.90;;;7.30;;
1390;SDS011;690;51.454;7.194;2023-12-07T14:54:02;13.00;;;7.70;;
1390;SDS011;690;51.454;7.194;2023-12-07T14:56:30;10.27;;;6.87;;
1390;SDS011;690;51.454;7.194;2023-12-07T14:58:58;17.10;;;8.00;;
1390;SDS011;690;51.454;7.194;2023-12-07T15:01:25;10.20;;;6.80;;
1390;SDS011;690;51.454;7.194;2023-12-07T15:04:00;7.13;;;6.43;;
1390;SDS011;690;51.454;7.194;2023-12-07T15:06:27;15.03;;;7.67;;
1390;SDS011;690;51.454;7.194;2023-12-07T15:08:54;10.53;;;7.57;;
1390;SDS011;690;51.454;7.194;2023-12-07T15:11:21;12.93;;;7.57;;